Time;durP1;ratioP1;P1;durP2;ratioP2;P2;SDS_P1;SDS_P2;PMS_P1;PMS_P2;Temp;Humidity;BMP_temperature;BMP_pressure;BME280_temperature;BME280_humidity;BME280_pressure;Samples;Min_cycle;Max_cycle;Signal;HPM_P1;HPM_P2
2024/02/09 00:00:56;;;;;;;20.50;8.35;;;;;;;;;;5059406;28;20021;-71
2024/02/09 00:03:43;;;;;;;13.38;7.82;;;;;;;;;;5072625;28;20584;-71
2024/02/09 00:06:31;;;;;;;16.67;8.25;;;;;;;;;;5071160;28;20059;-71
2024/02/09 00:09:17;;;;;;;22.55;8.82;;;;;;;;;;5056871;28;20028;-72
2024/02/09 00:12:03;;;;;;;16.73;8.15;;;;;;;;;;5071832;28;20024;-71
2024/02/09 00:14:50;;;;;;;23.90;8.20;;;;;;;;;;5072813;28;20508;-72
2024/02/09 00:17:38;;;;;;;24.60;7.72;;;;;;;;;;5070714;28;20021;-71
2024/02/09 00:20:25;;;;;;;20.88;8.43;;;;;;;;;;5056398;28;20089;-71
2024/02/09 00:23:11;;;;;;;21.70;8.38;;;;;;;;;;5071316;28;20033;-71
2024/02/09 00:25:57;;;;;;;15.18;7.22;;;;;;;;;;5068836;28;20112;-71
2024/02/09 00:28:42;;;;;;;13.77;6.65;;;;;;;;;;5055818;28;20017;-71
2024/02/09 00:31:28;;;;;;;16.60;7.15;;;;;;;;;;5057440;28;20078;-71
2024/02/09 00:34:17;;;;;;;25.60;8.40;;;;;;;;;;5060193;28;20033;-72
2024/02/09 00:37:02;;;;;;;25.63;8.05;;;;;;;;;;5052056;28;20451;-72
2024/02/09 00:39:48;;;;;;;14.25;6.90;;;;;;;;;;5061266;28;20024;-71
2024/02/09 00:42:34;;;;;;;19.25;6.75;;;;;;;;;;5071481;28;20455;-71
2024/02/09 00:45:20;;;;;;;20.52;5.88;;;;;;;;;;5069981;28;20024;-71
2024/02/09 00:48:08;;;;;;;20.17;6.70;;;;;;;;;;5067999;28;20504;-71
2024/02/09 00:50:54;;;;;;;20.25;7.43;;;;;;;;;;5071487;28;20040;-71
2024/02/09 00:53:40;;;;;;;12.93;6.47;;;;;;;;;;5072434;28;20029;-71
2024/02/09 00:56:26;;;;;;;19.52;6.55;;;;;;;;;;5060271;28;20031;-71
2024/02/09 00:59:11;;;;;;;16.02;6.50;;;;;;;;;;5075209;28;20446;-71
2024/02/09 01:01:58;;;;;;;14.68;5.82;;;;;;;;;;5054509;28;20025;-71
2024/02/09 01:04:44;;;;;;;15.10;5.78;;;;;;;;;;5074532;28;20095;-71
2024/02/09 01:07:30;;;;;;;16.10;5.03;;;;;;;;;;5074073;28;20065;-72
2024/02/09 01:10:15;;;;;;;12.48;5.15;;;;;;;;;;5073534;28;20028;-71
2024/02/09 02:45:00;;;;;;;4.50;2.05;;;;;;;;;;5081057;28;20034;-71
2024/02/09 03:04:18;;;;;;;6.30;2.50;;;;;;;;;;5072164;28;20027;-71
2024/02/09 03:06:14;;;;;;;8.60;2.20;;;;;;;;;;5074565;28;20024;-71
2024/02/09 03:09:00;;;;;;;10.93;2.25;;;;;;;;;;5072841;28;20028;-71
2024/02/09 03:11:46;;;;;;;5.63;1.98;;;;;;;;;;5073646;28;20116;-71
2024/02/09 03:14:31;;;;;;;14.68;2.90;;;;;;;;;;5072003;28;20483;-71
2024/02/09 03:17:17;;;;;;;11.93;2.35;;;;;;;;;;5072861;28;20021;-71
2024/02/09 03:20:04;;;;;;;7.10;2.28;;;;;;;;;;5072623;28;20135;-71
2024/02/09 03:22:50;;;;;;;14.82;2.50;;;;;;;;;;5057975;28;20113;-71
2024/02/09 03:25:36;;;;;;;7.25;2.38;;;;;;;;;;5073597;28;20084;-71
2024/02/09 03:28:22;;;;;;;9.43;2.78;;;;;;;;;;5058819;28;20051;-71
2024/02/09 03:31:08;;;;;;;8.32;2.22;;;;;;;;;;5072799;28;20028;-71
2024/02/09 03:33:55;;;;;;;9.18;1.98;;;;;;;;;;5071760;28;20025;-71
2024/02/09 03:36:41;;;;;;;8.20;2.10;;;;;;;;;;5071867;28;20024;-71
2024/02/09 03:39:27;;;;;;;11.27;2.50;;;;;;;;;;5045084;28;20473;-71
2024/02/09 03:42:13;;;;;;;4.88;2.42;;;;;;;;;;5071816;28;20043;-71
2024/02/09 03:44:58;;;;;;;6.13;3.38;;;;;;;;;;5072606;28;20020;-71
2024/02/09 03:47:44;;;;;;;3.20;2.00;;;;;;;;;;5058178;28;20109;-71
2024/02/09 03:50:34;;;;;;;7.40;3.05;;;;;;;;;;5073009;28;20111;-71
2024/02/09 03:53:19;;;;;;;6.88;2.80;;;;;;;;;;5058149;28;20091;-70
2024/02/09 03:56:05;;;;;;;9.95;2.50;;;;;;;;;;5072633;28;20028;-71
2024/02/09 03:58:51;;;;;;;10.63;3.00;;;;;;;;;;5071856;28;20013;-71
2024/02/09 04:01:36;;;;;;;4.25;2.35;;;;;;;;;;5058400;28;20025;-71
2024/02/09 04:04:22;;;;;;;9.65;2.65;;;;;;;;;;5057540;28;20363;-71
2024/02/09 04:07:08;;;;;;;12.15;3.13;;;;;;;;;;5072510;28;20021;-71
2024/02/09 04:09:53;;;;;;;6.65;3.05;;;;;;;;;;5058520;28;20032;-71
2024/02/09 04:12:39;;;;;;;5.00;3.15;;;;;;;;;;5072384;28;20025;-71
2024/02/09 04:15:25;;;;;;;6.55;2.33;;;;;;;;;;5072006;28;20024;-71
2024/02/09 04:18:11;;;;;;;9.77;3.15;;;;;;;;;;5057885;28;20020;-71
2024/02/09 04:20:57;;;;;;;7.40;2.95;;;;;;;;;;5032555;28;20021;-71
2024/02/09 04:23:43;;;;;;;8.27;3.08;;;;;;;;;;5029147;28;20026;-71
2024/02/09 04:26:29;;;;;;;12.25;3.15;;;;;;;;;;5034069;28;20398;-71
2024/02/09 04:29:16;;;;;;;13.65;4.28;;;;;;;;;;5034999;28;20029;-71
2024/02/09 04:32:01;;;;;;;7.60;3.83;;;;;;;;;;5022588;28;20510;-71
2024/02/09 04:34:47;;;;;;;8.80;3.53;;;;;;;;;;5036499;28;20032;-71
2024/02/09 04:37:35;;;;;;;6.63;3.30;;;;;;;;;;5051535;28;20017;-71
2024/02/09 04:40:20;;;;;;;6.95;2.83;;;;;;;;;;5047736;28;20028;-71
2024/02/09 04:43:06;;;;;;;8.60;3.60;;;;;;;;;;5076187;28;20480;-71
2024/02/09 04:45:51;;;;;;;6.93;2.67;;;;;;;;;;5074794;28;20033;-71
2024/02/09 04:48:37;;;;;;;5.75;2.50;;;;;;;;;;5047510;28;20012;-71
2024/02/09 04:51:23;;;;;;;9.85;3.22;;;;;;;;;;5074286;28;20493;-71
2024/02/09 04:54:09;;;;;;;6.90;3.10;;;;;;;;;;5065535;28;20033;-71
2024/02/09 04:56:56;;;;;;;8.50;2.75;;;;;;;;;;5020599;28;20029;-71
2024/02/09 04:59:41;;;;;;;6.88;2.13;;;;;;;;;;5035268;28;20033;-71
2024/02/09 05:02:27;;;;;;;11.70;2.65;;;;;;;;;;5035517;28;20053;-71
2024/02/09 05:05:13;;;;;;;5.40;2.45;;;;;;;;;;5052187;28;20028;-71
2024/02/09 05:07:59;;;;;;;6.35;2.08;;;;;;;;;;5049589;28;20020;-71
2024/02/09 05:10:46;;;;;;;3.53;1.60;;;;;;;;;;5040690;28;20379;-71
2024/02/09 05:13:34;;;;;;;11.55;2.85;;;;;;;;;;5055237;28;20033;-71
2024/02/09 05:16:20;;;;;;;3.55;1.98;;;;;;;;;;5049722;28;20372;-71
2024/02/09 05:19:12;;;;;;;8.90;2.05;;;;;;;;;;5025078;28;20032;-71
2024/02/09 05:21:58;;;;;;;1.38;1.00;;;;;;;;;;5034352;28;20033;-71
2024/02/09 05:24:45;;;;;;;7.18;2.05;;;;;;;;;;5045485;28;20498;-70
2024/02/09 05:27:32;;;;;;;3.38;1.92;;;;;;;;;;5068827;28;20051;-70
2024/02/09 05:30:18;;;;;;;8.60;2.22;;;;;;;;;;5059436;28;20029;-70
2024/02/09 05:33:04;;;;;;;6.03;1.80;;;;;;;;;;5055331;28;20022;-70
2024/02/09 05:35:51;;;;;;;9.65;2.30;;;;;;;;;;5050864;28;20025;-70
2024/02/09 05:38:37;;;;;;;2.20;1.88;;;;;;;;;;5054309;28;20020;-69
2024/02/09 05:41:23;;;;;;;2.10;1.45;;;;;;;;;;5053701;28;20057;-70
2024/02/09 05:44:08;;;;;;;2.72;1.42;;;;;;;;;;5037178;28;20043;-69
2024/02/09 05:46:54;;;;;;;8.65;1.70;;;;;;;;;;5022183;28;20041;-70
2024/02/09 05:49:39;;;;;;;4.85;2.15;;;;;;;;;;5036095;28;20029;-70
2024/02/09 05:52:26;;;;;;;4.30;2.88;;;;;;;;;;5034264;28;20060;-69
2024/02/09 05:55:11;;;;;;;4.65;2.25;;;;;;;;;;5040145;28;20024;-70
2024/02/09 05:57:59;;;;;;;7.95;2.22;;;;;;;;;;5054263;28;20021;-70
2024/02/09 06:00:44;;;;;;;8.18;2.25;;;;;;;;;;5039333;28;20021;-70
2024/02/09 06:03:32;;;;;;;3.15;1.60;;;;;;;;;;5053166;28;20049;-70
2024/02/09 06:06:20;;;;;;;8.15;2.13;;;;;;;;;;5053913;28;20055;-70
2024/02/09 06:09:06;;;;;;;10.13;2.65;;;;;;;;;;5050236;28;20471;-70
2024/02/09 06:11:57;;;;;;;4.25;1.88;;;;;;;;;;5032906;28;20466;-70
2024/02/09 06:14:42;;;;;;;3.92;2.15;;;;;;;;;;5033254;28;20027;-70
2024/02/09 06:17:28;;;;;;;8.57;1.98;;;;;;;;;;5034616;28;20028;-70
2024/02/09 06:20:22;;;;;;;3.88;2.03;;;;;;;;;;5032207;28;20030;-70
2024/02/09 06:23:08;;;;;;;4.25;2.03;;;;;;;;;;5033734;28;20087;-69
2024/02/09 06:25:55;;;;;;;4.65;2.15;;;;;;;;;;5050809;28;20405;-70
2024/02/09 06:28:43;;;;;;;4.75;1.85;;;;;;;;;;5049634;28;20497;-70
2024/02/09 06:31:28;;;;;;;2.70;1.90;;;;;;;;;;5036758;28;20036;-70
2024/02/09 06:34:14;;;;;;;8.30;2.33;;;;;;;;;;5034210;28;20029;-70
2024/02/09 06:37:00;;;;;;;4.50;2.25;;;;;;;;;;5034841;28;20017;-70
2024/02/09 06:39:46;;;;;;;9.70;2.55;;;;;;;;;;5040525;28;20025;-70
2024/02/09 06:42:31;;;;;;;9.00;3.22;;;;;;;;;;5032638;28;20096;-70
2024/02/09 06:45:17;;;;;;;10.05;3.70;;;;;;;;;;5070299;28;20060;-70
2024/02/09 06:48:06;;;;;;;11.50;3.58;;;;;;;;;;5057289;28;20021;-70
2024/02/09 06:50:52;;;;;;;15.60;5.40;;;;;;;;;;5072926;28;20402;-70
2024/02/09 06:53:38;;;;;;;10.55;5.88;;;;;;;;;;5072670;28;20077;-71
2024/02/09 06:56:24;;;;;;;16.27;6.10;;;;;;;;;;5073090;28;20496;-70
2024/02/09 06:59:10;;;;;;;11.00;5.95;;;;;;;;;;5072522;28;20039;-70
2024/02/09 07:01:55;;;;;;;15.82;5.63;;;;;;;;;;5072944;28;20023;-70
2024/02/09 07:04:41;;;;;;;21.20;5.95;;;;;;;;;;5074023;28;20562;-71
2024/02/09 07:07:28;;;;;;;20.27;7.03;;;;;;;;;;5073893;28;20444;-71
2024/02/09 07:10:16;;;;;;;23.40;6.72;;;;;;;;;;5053712;28;20036;-70
2024/02/09 07:13:02;;;;;;;14.77;6.70;;;;;;;;;;5038322;28;20025;-70
2024/02/09 07:15:48;;;;;;;19.38;7.05;;;;;;;;;;5053032;28;20025;-70
2024/02/09 07:18:38;;;;;;;16.45;7.97;;;;;;;;;;5046590;28;20028;-70
2024/02/09 07:21:23;;;;;;;21.38;7.07;;;;;;;;;;5038146;28;20043;-71
2024/02/09 07:24:09;;;;;;;24.95;7.30;;;;;;;;;;5052529;28;20025;-71
2024/02/09 07:26:55;;;;;;;21.27;7.18;;;;;;;;;;5052179;28;20021;-71
2024/02/09 07:29:40;;;;;;;15.25;5.88;;;;;;;;;;5053468;28;20082;-71
2024/02/09 07:32:26;;;;;;;13.05;5.70;;;;;;;;;;5047357;28;20479;-71
2024/02/09 07:35:12;;;;;;;19.60;7.50;;;;;;;;;;5052843;28;20106;-71
2024/02/09 07:37:58;;;;;;;15.05;6.47;;;;;;;;;;5045215;28;20017;-71
2024/02/09 07:40:43;;;;;;;20.83;6.95;;;;;;;;;;5018507;28;20036;-71
2024/02/09 07:43:29;;;;;;;16.92;7.00;;;;;;;;;;5018236;28;20029;-70
2024/02/09 07:46:15;;;;;;;14.82;6.50;;;;;;;;;;5032523;28;20031;-71
2024/02/09 07:49:01;;;;;;;10.45;5.47;;;;;;;;;;5025431;28;20018;-71
2024/02/09 07:51:48;;;;;;;13.40;5.63;;;;;;;;;;5031619;28;20029;-71
2024/02/09 07:54:35;;;;;;;10.35;5.63;;;;;;;;;;5031873;28;20022;-71
2024/02/09 07:57:21;;;;;;;13.35;6.03;;;;;;;;;;5030914;28;20498;-71
2024/02/09 08:00:09;;;;;;;11.48;5.30;;;;;;;;;;5058884;28;20526;-71
2024/02/09 08:02:55;;;;;;;6.40;4.03;;;;;;;;;;5008543;28;20121;-71
2024/02/09 08:05:41;;;;;;;9.95;4.82;;;;;;;;;;5036047;28;20040;-71
2024/02/09 08:08:26;;;;;;;16.58;6.55;;;;;;;;;;5036595;28;20025;-71
2024/02/09 08:11:12;;;;;;;8.82;4.75;;;;;;;;;;5035688;28;20502;-71
2024/02/09 08:14:00;;;;;;;12.07;4.90;;;;;;;;;;5022321;28;20034;-70
2024/02/09 08:16:46;;;;;;;7.82;4.85;;;;;;;;;;5022613;28;20044;-71
2024/02/09 08:19:34;;;;;;;11.15;4.50;;;;;;;;;;5042446;28;20442;-71
2024/02/09 08:22:22;;;;;;;11.25;4.97;;;;;;;;;;5039032;28;20050;-71
2024/02/09 08:25:08;;;;;;;5.20;3.00;;;;;;;;;;5049491;28;20036;-70
2024/02/09 08:27:53;;;;;;;6.10;3.53;;;;;;;;;;5052521;28;20065;-71
2024/02/09 08:30:39;;;;;;;7.10;3.80;;;;;;;;;;5045252;28;20527;-71
2024/02/09 08:33:25;;;;;;;6.45;4.10;;;;;;;;;;5052634;28;20409;-71
2024/02/09 08:36:12;;;;;;;8.10;3.80;;;;;;;;;;5041241;28;20025;-71
2024/02/09 08:38:57;;;;;;;14.27;4.05;;;;;;;;;;5056219;28;20386;-72
2024/02/09 08:41:43;;;;;;;6.72;3.30;;;;;;;;;;5050600;28;20028;-71
2024/02/09 08:44:29;;;;;;;8.63;4.03;;;;;;;;;;5040269;28;20052;-71
2024/02/09 08:47:14;;;;;;;6.75;2.90;;;;;;;;;;5021833;28;20018;-71
2024/02/09 08:50:00;;;;;;;6.47;4.15;;;;;;;;;;5021884;28;20025;-71
2024/02/09 08:52:49;;;;;;;5.70;3.10;;;;;;;;;;5034900;28;20112;-71
2024/02/09 08:55:34;;;;;;;8.60;3.42;;;;;;;;;;5020841;28;20033;-71
2024/02/09 08:58:20;;;;;;;6.82;3.30;;;;;;;;;;5035947;28;20021;-71
2024/02/09 09:01:06;;;;;;;5.65;2.90;;;;;;;;;;5035878;28;20022;-71
2024/02/09 09:03:54;;;;;;;7.10;3.17;;;;;;;;;;5035744;28;20022;-72
2024/02/09 09:06:40;;;;;;;5.05;2.78;;;;;;;;;;5021167;28;20052;-72
2024/02/09 09:09:26;;;;;;;12.32;4.38;;;;;;;;;;5035283;28;20026;-71
2024/02/09 09:12:12;;;;;;;6.05;2.90;;;;;;;;;;5033690;28;20041;-70
2024/02/09 09:14:58;;;;;;;5.15;3.15;;;;;;;;;;5021932;28;20375;-71
2024/02/09 09:17:44;;;;;;;4.07;2.85;;;;;;;;;;5035990;28;20455;-71
2024/02/09 09:20:29;;;;;;;4.43;2.92;;;;;;;;;;5021365;28;20033;-71
2024/02/09 09:23:15;;;;;;;5.38;2.75;;;;;;;;;;5034652;28;20021;-71
2024/02/09 09:26:00;;;;;;;3.83;2.55;;;;;;;;;;5007204;28;20491;-71
2024/02/09 09:28:49;;;;;;;7.13;2.83;;;;;;;;;;5035005;28;20447;-71
2024/02/09 09:31:35;;;;;;;6.47;2.63;;;;;;;;;;5043317;28;20040;-70
2024/02/09 09:34:21;;;;;;;6.97;2.50;;;;;;;;;;5053910;28;20025;-71
2024/02/09 09:37:06;;;;;;;6.47;2.90;;;;;;;;;;5054450;28;20020;-70
2024/02/09 09:39:53;;;;;;;4.00;2.47;;;;;;;;;;5060233;28;20494;-70
2024/02/09 09:42:41;;;;;;;6.68;2.47;;;;;;;;;;5034973;28;20497;-70
2024/02/09 09:45:30;;;;;;;4.80;2.13;;;;;;;;;;5036690;28;20029;-70
2024/02/09 09:48:16;;;;;;;5.85;3.00;;;;;;;;;;5039273;28;20017;-71
2024/02/09 09:51:04;;;;;;;5.22;2.70;;;;;;;;;;5039365;28;20049;-71
2024/02/09 09:53:52;;;;;;;3.15;2.42;;;;;;;;;;5040515;28;20021;-71
2024/02/09 09:56:39;;;;;;;9.20;2.25;;;;;;;;;;5039154;28;20106;-71
2024/02/09 09:59:25;;;;;;;3.22;2.10;;;;;;;;;;5048916;28;20480;-71
2024/02/09 10:02:11;;;;;;;6.07;2.30;;;;;;;;;;5045578;28;20024;-71
2024/02/09 10:04:58;;;;;;;3.15;2.67;;;;;;;;;;5032254;28;20034;-71
2024/02/09 10:07:43;;;;;;;4.28;2.17;;;;;;;;;;5020337;28;20068;-71
2024/02/09 10:10:29;;;;;;;4.70;2.15;;;;;;;;;;5019709;28;20026;-70
2024/02/09 10:13:15;;;;;;;8.95;2.72;;;;;;;;;;5019352;28;20026;-71
2024/02/09 10:16:03;;;;;;;4.38;2.25;;;;;;;;;;5034558;28;20160;-70
2024/02/09 10:18:48;;;;;;;5.43;2.45;;;;;;;;;;5029631;28;20059;-70
2024/02/09 10:21:34;;;;;;;4.25;2.20;;;;;;;;;;5018921;28;20502;-70
2024/02/09 10:24:20;;;;;;;5.55;2.63;;;;;;;;;;5041200;28;20025;-70
2024/02/09 10:27:06;;;;;;;4.57;2.25;;;;;;;;;;5033646;28;20080;-70
2024/02/09 10:29:54;;;;;;;3.58;2.05;;;;;;;;;;5018736;28;20025;-71
2024/02/09 10:32:40;;;;;;;4.68;2.47;;;;;;;;;;5019259;28;20136;-70
2024/02/09 10:35:27;;;;;;;5.80;2.75;;;;;;;;;;5033880;28;20025;-71
2024/02/09 10:38:16;;;;;;;9.27;2.88;;;;;;;;;;5054869;28;20017;-70
2024/02/09 10:41:02;;;;;;;6.45;2.33;;;;;;;;;;5065873;28;20031;-70
2024/02/09 10:43:51;;;;;;;5.28;2.95;;;;;;;;;;5072716;28;20028;-71
2024/02/09 10:46:38;;;;;;;8.63;3.35;;;;;;;;;;5068885;28;20021;-71
2024/02/09 10:49:29;;;;;;;4.70;2.70;;;;;;;;;;5023172;28;20038;-69
2024/02/09 10:52:17;;;;;;;4.57;2.10;;;;;;;;;;5044908;28;20095;-70
2024/02/09 10:55:06;;;;;;;3.70;2.15;;;;;;;;;;5043634;28;20422;-71
2024/02/09 10:57:54;;;;;;;4.90;2.45;;;;;;;;;;5036421;28;20018;-70
2024/02/09 11:00:39;;;;;;;5.30;1.98;;;;;;;;;;5025571;28;20033;-70
2024/02/09 11:03:25;;;;;;;4.47;2.83;;;;;;;;;;5030388;28;20502;-71
2024/02/09 11:06:11;;;;;;;9.85;3.60;;;;;;;;;;5043034;28;20024;-71
2024/02/09 11:08:58;;;;;;;5.78;2.85;;;;;;;;;;5058090;28;20024;-70
2024/02/09 11:11:47;;;;;;;5.55;2.55;;;;;;;;;;5027754;28;20024;-71
2024/02/09 11:14:34;;;;;;;7.25;3.05;;;;;;;;;;5050818;28;20029;-71
2024/02/09 11:17:19;;;;;;;2.85;2.17;;;;;;;;;;5053069;28;20017;-71
2024/02/09 11:20:06;;;;;;;3.20;2.20;;;;;;;;;;5051653;28;20051;-71
2024/02/09 11:23:00;;;;;;;2.97;2.63;;;;;;;;;;5044223;28;20021;-71
2024/02/09 11:25:46;;;;;;;4.32;2.13;;;;;;;;;;5039217;28;20077;-71
2024/02/09 11:28:31;;;;;;;3.13;2.10;;;;;;;;;;5034298;28;20510;-70
2024/02/09 11:31:20;;;;;;;2.75;2.17;;;;;;;;;;5050398;28;20021;-70
2024/02/09 11:34:06;;;;;;;5.00;2.22;;;;;;;;;;5043962;28;20083;-70
2024/02/09 11:36:58;;;;;;;4.57;2.10;;;;;;;;;;5056119;28;20032;-70
2024/02/09 11:39:44;;;;;;;3.05;1.98;;;;;;;;;;5054624;28;20032;-70
2024/02/09 11:42:31;;;;;;;3.85;2.03;;;;;;;;;;5047217;28;20379;-70
2024/02/09 11:45:17;;;;;;;3.80;2.05;;;;;;;;;;5035908;28;20025;-70
2024/02/09 11:48:04;;;;;;;4.95;2.17;;;;;;;;;;5035808;28;20538;-71
2024/02/09 11:50:53;;;;;;;3.53;2.28;;;;;;;;;;5017011;28;20048;-70
2024/02/09 11:53:38;;;;;;;4.10;2.65;;;;;;;;;;5018098;28;20053;-71
2024/02/09 11:56:24;;;;;;;3.67;2.65;;;;;;;;;;5032548;28;20032;-70
2024/02/09 11:59:11;;;;;;;5.80;2.22;;;;;;;;;;5039393;28;20400;-70
2024/02/09 12:01:56;;;;;;;2.72;1.90;;;;;;;;;;5052993;28;20478;-70
2024/02/09 12:04:42;;;;;;;3.80;2.58;;;;;;;;;;5031180;28;20159;-70
2024/02/09 12:07:28;;;;;;;3.30;2.40;;;;;;;;;;5030794;28;20108;-70
2024/02/09 12:10:13;;;;;;;3.30;2.35;;;;;;;;;;5017955;28;20110;-70
2024/02/09 12:12:59;;;;;;;5.28;2.88;;;;;;;;;;5032187;28;20041;-70
2024/02/09 12:15:45;;;;;;;3.85;2.10;;;;;;;;;;5017503;28;20032;-70
2024/02/09 12:18:31;;;;;;;2.10;1.75;;;;;;;;;;5030435;28;20060;-70
2024/02/09 12:21:16;;;;;;;2.45;2.00;;;;;;;;;;5016579;28;20021;-70
2024/02/09 12:24:04;;;;;;;2.55;2.05;;;;;;;;;;5016139;28;20029;-69
2024/02/09 12:26:50;;;;;;;2.90;1.92;;;;;;;;;;5036603;28;20025;-70
2024/02/09 12:29:38;;;;;;;5.60;1.83;;;;;;;;;;5036638;28;20401;-70
2024/02/09 12:32:24;;;;;;;3.78;2.03;;;;;;;;;;5060184;28;20111;-70
2024/02/09 12:35:10;;;;;;;2.63;2.05;;;;;;;;;;5036950;28;20025;-70
2024/02/09 12:37:57;;;;;;;2.88;1.52;;;;;;;;;;5064290;28;20017;-70
2024/02/09 12:40:44;;;;;;;2.53;2.33;;;;;;;;;;5069731;28;20029;-70
2024/02/09 12:43:29;;;;;;;2.95;1.80;;;;;;;;;;5056224;28;20024;-70
2024/02/09 12:46:19;;;;;;;3.40;1.90;;;;;;;;;;5054175;28;20032;-70
2024/02/09 12:49:08;;;;;;;5.13;1.75;;;;;;;;;;5073872;28;20056;-70
2024/02/09 12:51:53;;;;;;;2.47;1.67;;;;;;;;;;5073919;28;20020;-70
2024/02/09 12:54:39;;;;;;;2.90;1.80;;;;;;;;;;5074811;28;20028;-70
2024/02/09 12:57:26;;;;;;;2.30;2.05;;;;;;;;;;5073785;28;20039;-70
2024/02/09 13:00:13;;;;;;;2.83;1.83;;;;;;;;;;5072573;28;20025;-70
2024/02/09 13:02:58;;;;;;;3.13;1.95;;;;;;;;;;5074021;28;20021;-70
2024/02/09 13:05:44;;;;;;;3.92;2.10;;;;;;;;;;5058720;28;20031;-70
2024/02/09 13:08:30;;;;;;;2.95;1.95;;;;;;;;;;5045368;28;20032;-70
2024/02/09 13:11:15;;;;;;;4.53;2.38;;;;;;;;;;5059141;28;20029;-70
2024/02/09 13:14:02;;;;;;;4.05;2.03;;;;;;;;;;5074462;28;20225;-70
2024/02/09 13:16:53;;;;;;;3.28;1.75;;;;;;;;;;5059646;28;20052;-70
2024/02/09 13:19:39;;;;;;;3.00;2.03;;;;;;;;;;5059517;28;20141;-70
2024/02/09 13:22:25;;;;;;;2.90;2.30;;;;;;;;;;5072640;28;20032;-70
2024/02/09 13:25:13;;;;;;;2.90;2.10;;;;;;;;;;5055057;28;20037;-70
2024/02/09 13:28:05;;;;;;;3.92;2.28;;;;;;;;;;5040589;28;20079;-71
2024/02/09 13:30:51;;;;;;;7.00;2.03;;;;;;;;;;5033351;28;20113;-70
2024/02/09 13:33:37;;;;;;;7.32;2.45;;;;;;;;;;5037077;28;20502;-70
2024/02/09 13:36:23;;;;;;;4.40;1.60;;;;;;;;;;5045453;28;20032;-70
2024/02/09 13:39:09;;;;;;;2.85;1.65;;;;;;;;;;5035960;28;20025;-70
2024/02/09 13:41:54;;;;;;;4.53;2.10;;;;;;;;;;5051544;28;20029;-70
2024/02/09 13:44:40;;;;;;;4.30;2.13;;;;;;;;;;5051990;28;20016;-70
2024/02/09 13:47:25;;;;;;;5.97;2.15;;;;;;;;;;5053612;28;20520;-70
2024/02/09 13:50:11;;;;;;;4.57;2.42;;;;;;;;;;5064997;28;20040;-70
2024/02/09 13:52:57;;;;;;;4.38;3.08;;;;;;;;;;5037972;28;20025;-70
2024/02/09 13:55:43;;;;;;;2.97;2.03;;;;;;;;;;5070109;28;20490;-70
2024/02/09 13:58:29;;;;;;;2.60;1.98;;;;;;;;;;5056750;28;20033;-70
2024/02/09 14:01:15;;;;;;;8.90;2.58;;;;;;;;;;5061888;28;20031;-70
2024/02/09 14:04:00;;;;;;;7.85;2.65;;;;;;;;;;5052263;28;20055;-69
2024/02/09 14:06:47;;;;;;;3.95;1.92;;;;;;;;;;5038648;28;20102;-70
2024/02/09 14:09:35;;;;;;;3.28;2.17;;;;;;;;;;5035242;28;20044;-70
2024/02/09 14:12:23;;;;;;;5.38;2.22;;;;;;;;;;5038852;28;20028;-70
2024/02/09 14:15:10;;;;;;;5.30;2.15;;;;;;;;;;5015610;28;20404;-70
2024/02/09 14:17:56;;;;;;;5.50;2.47;;;;;;;;;;5048637;28;20059;-70
2024/02/09 14:20:46;;;;;;;2.92;2.28;;;;;;;;;;5041099;28;20509;-71
2024/02/09 14:23:34;;;;;;;3.72;2.35;;;;;;;;;;5038268;28;20491;-71
2024/02/09 14:26:20;;;;;;;4.65;2.47;;;;;;;;;;5025451;28;20095;-70
2024/02/09 14:29:06;;;;;;;5.18;2.55;;;;;;;;;;5041515;28;20025;-70
2024/02/09 14:31:51;;;;;;;2.97;2.08;;;;;;;;;;5047604;28;20033;-70
2024/02/09 14:34:38;;;;;;;4.78;2.67;;;;;;;;;;5033563;28;20040;-70
2024/02/09 14:37:23;;;;;;;3.38;2.33;;;;;;;;;;5048531;28;20030;-70
2024/02/09 14:40:10;;;;;;;3.83;2.75;;;;;;;;;;5033278;28;20044;-71
2024/02/09 14:42:57;;;;;;;3.28;2.22;;;;;;;;;;5046401;28;20033;-71
2024/02/09 14:45:43;;;;;;;4.28;2.33;;;;;;;;;;5037539;28;20049;-70
2024/02/09 14:48:28;;;;;;;4.45;2.30;;;;;;;;;;5035283;28;20033;-71
2024/02/09 14:51:16;;;;;;;4.35;2.30;;;;;;;;;;5035628;28;20067;-71
2024/02/09 14:54:02;;;;;;;2.85;1.60;;;;;;;;;;5042708;28;20525;-71
2024/02/09 14:56:48;;;;;;;5.15;2.55;;;;;;;;;;5030034;28;20124;-70
2024/02/09 14:59:33;;;;;;;4.57;2.65;;;;;;;;;;5015454;28;20501;-72
2024/02/09 15:02:19;;;;;;;4.57;2.78;;;;;;;;;;5021656;28;20032;-72
2024/02/09 15:05:09;;;;;;;4.72;2.25;;;;;;;;;;5037476;28;20044;-72
2024/02/09 15:07:58;;;;;;;2.83;2.22;;;;;;;;;;5023925;28;20034;-69
2024/02/09 15:10:44;;;;;;;3.58;2.33;;;;;;;;;;5022245;28;20112;-71
2024/02/09 15:13:29;;;;;;;4.85;2.15;;;;;;;;;;5032027;28;20483;-71
2024/02/09 15:16:19;;;;;;;3.55;1.75;;;;;;;;;;5033963;28;20033;-72
2024/02/09 15:19:05;;;;;;;4.15;2.05;;;;;;;;;;5030840;28;20368;-72
2024/02/09 15:21:53;;;;;;;3.35;2.30;;;;;;;;;;5028633;28;20033;-72
2024/02/09 15:24:38;;;;;;;5.40;2.40;;;;;;;;;;5024918;28;20067;-72
2024/02/09 15:27:26;;;;;;;5.20;2.28;;;;;;;;;;5020709;28;20101;-71
2024/02/09 15:30:14;;;;;;;4.28;2.42;;;;;;;;;;5024330;28;20409;-72
2024/02/09 15:33:00;;;;;;;3.70;2.20;;;;;;;;;;5031943;28;20021;-72
2024/02/09 15:35:45;;;;;;;9.70;2.70;;;;;;;;;;5033161;28;20024;-70
2024/02/09 15:38:32;;;;;;;7.53;2.92;;;;;;;;;;5041858;28;20028;-70
2024/02/09 15:41:19;;;;;;;4.65;2.13;;;;;;;;;;5041355;28;20036;-69
2024/02/09 15:44:05;;;;;;;3.60;2.85;;;;;;;;;;5015901;28;20034;-70
2024/02/09 15:46:53;;;;;;;3.67;2.58;;;;;;;;;;5070832;28;20110;-70
2024/02/09 15:49:39;;;;;;;4.10;2.08;;;;;;;;;;5042684;28;20033;-70
2024/02/09 15:52:25;;;;;;;6.35;2.50;;;;;;;;;;5071092;28;20455;-69
2024/02/09 15:55:10;;;;;;;3.80;2.35;;;;;;;;;;5070038;28;20064;-69
2024/02/09 15:57:56;;;;;;;2.85;1.92;;;;;;;;;;5054995;28;20051;-70
2024/02/09 16:00:42;;;;;;;7.35;4.20;;;;;;;;;;5052098;28;20029;-70
2024/02/09 16:03:27;;;;;;;8.88;3.05;;;;;;;;;;5052331;28;20025;-70
2024/02/09 16:06:14;;;;;;;6.68;2.63;;;;;;;;;;5070239;28;20025;-69
2024/02/09 16:09:00;;;;;;;4.82;2.60;;;;;;;;;;5056647;28;20025;-70
2024/02/09 16:11:46;;;;;;;3.72;2.42;;;;;;;;;;5070758;28;20028;-70
2024/02/09 16:14:32;;;;;;;4.40;2.47;;;;;;;;;;5057427;28;20021;-69
2024/02/09 16:17:18;;;;;;;3.10;2.17;;;;;;;;;;5056951;28;20051;-69
2024/02/09 16:20:08;;;;;;;4.25;2.20;;;;;;;;;;5038890;28;20039;-70
2024/02/09 16:22:54;;;;;;;9.32;3.17;;;;;;;;;;5039351;28;20021;-70
2024/02/09 16:25:40;;;;;;;5.38;2.55;;;;;;;;;;5060785;28;20029;-70
2024/02/09 16:28:25;;;;;;;4.88;2.53;;;;;;;;;;5072784;28;20190;-70
2024/02/09 16:31:15;;;;;;;2.85;2.15;;;;;;;;;;5055624;28;20100;-70
2024/02/09 16:34:01;;;;;;;4.88;2.55;;;;;;;;;;5041089;28;20021;-70
2024/02/09 16:36:47;;;;;;;3.70;2.13;;;;;;;;;;5054289;28;20029;-70
2024/02/09 16:39:34;;;;;;;2.58;2.20;;;;;;;;;;5055322;28;20398;-70
2024/02/09 16:42:20;;;;;;;3.35;2.72;;;;;;;;;;5042006;28;20025;-70
2024/02/09 16:45:07;;;;;;;4.50;2.38;;;;;;;;;;5058826;28;20375;-70
2024/02/09 16:47:53;;;;;;;4.45;2.28;;;;;;;;;;5074553;28;20035;-70
2024/02/09 16:50:39;;;;;;;3.35;2.42;;;;;;;;;;5080691;23;20031;-70
2024/02/09 16:53:26;;;;;;;3.22;2.30;;;;;;;;;;5035144;28;20045;-70
2024/02/09 16:56:13;;;;;;;4.00;2.50;;;;;;;;;;5021079;28;20034;-70
2024/02/09 16:58:59;;;;;;;2.65;2.00;;;;;;;;;;5022068;28;20021;-70
2024/02/09 17:01:45;;;;;;;4.90;2.60;;;;;;;;;;5035544;28;20029;-70
2024/02/09 17:04:30;;;;;;;3.85;2.08;;;;;;;;;;5035121;28;20025;-70
2024/02/09 17:07:16;;;;;;;4.22;2.30;;;;;;;;;;5021567;28;20029;-70
2024/02/09 17:10:03;;;;;;;6.63;2.72;;;;;;;;;;5036326;28;20040;-70
2024/02/09 17:12:49;;;;;;;4.57;2.20;;;;;;;;;;5035529;28;20402;-69
2024/02/09 17:15:34;;;;;;;3.20;1.98;;;;;;;;;;5035179;28;20547;-70
2024/02/09 17:18:20;;;;;;;3.42;1.90;;;;;;;;;;5021190;28;20032;-70
2024/02/09 17:21:06;;;;;;;3.28;2.28;;;;;;;;;;5035535;28;20087;-72
2024/02/09 17:23:54;;;;;;;4.55;2.05;;;;;;;;;;5036611;28;20037;-71
2024/02/09 17:26:40;;;;;;;2.88;2.35;;;;;;;;;;5019795;28;20030;-72
2024/02/09 17:29:26;;;;;;;4.72;2.95;;;;;;;;;;5019286;28;20022;-71
2024/02/09 17:32:11;;;;;;;4.28;2.30;;;;;;;;;;5020613;28;20079;-71
2024/02/09 17:35:00;;;;;;;6.28;2.67;;;;;;;;;;5033827;28;20029;-72
2024/02/09 17:37:46;;;;;;;4.03;3.13;;;;;;;;;;5008563;28;20030;-71
2024/02/09 17:40:32;;;;;;;3.25;1.95;;;;;;;;;;5020624;28;20083;-72
2024/02/09 17:43:17;;;;;;;4.97;3.10;;;;;;;;;;5036010;28;20087;-71
2024/02/09 17:46:05;;;;;;;3.65;2.50;;;;;;;;;;5022331;28;20029;-71
2024/02/09 17:48:51;;;;;;;2.90;2.40;;;;;;;;;;5035185;28;20022;-69
2024/02/09 17:51:36;;;;;;;7.50;2.80;;;;;;;;;;5020364;28;20410;-70
2024/02/09 17:54:22;;;;;;;3.85;2.70;;;;;;;;;;5022060;28;20025;-70
2024/02/09 17:57:08;;;;;;;5.45;3.17;;;;;;;;;;5034911;28;20030;-71
2024/02/09 17:59:53;;;;;;;4.25;2.33;;;;;;;;;;5034910;28;20029;-71
2024/02/09 18:02:39;;;;;;;3.13;2.22;;;;;;;;;;5021674;28;20390;-71
2024/02/09 18:05:25;;;;;;;3.83;2.63;;;;;;;;;;5020381;28;20029;-70
2024/02/09 18:08:11;;;;;;;4.95;2.85;;;;;;;;;;5021767;28;20084;-70
2024/02/09 18:10:57;;;;;;;3.15;2.35;;;;;;;;;;5035144;28;20029;-71
2024/02/09 18:13:43;;;;;;;5.75;2.90;;;;;;;;;;5021488;28;20021;-70
2024/02/09 18:16:28;;;;;;;4.03;2.83;;;;;;;;;;5035474;28;20026;-71
2024/02/09 18:19:14;;;;;;;6.78;2.88;;;;;;;;;;5034915;28;20475;-70
2024/02/09 18:21:59;;;;;;;6.53;2.95;;;;;;;;;;5027427;28;20036;-69